!

WordPress database error: []
INSERT INTO `metar` (`ID`, `ICAO`, `datetime`, `reading`, `temperature`, `pressure`, `direction`, `direction_varmin`, `direction_varmax`, `windspeed`, `windspeed_gusts`, `created`) VALUES (NULL, 'EDDF', '2017-09-20 03:20:00', 'EDDF 200320Z 21003KT 5000 BCFG MIFG NSC 07/06 Q1021 TEMPO 4000', '7', '1021', '210', '', '', '3', '', '2017-09-20 03:38:33')

METAR RAW:EDDF 200320Z 21003KT 5000 BCFG MIFG NSC 07/06 Q1021 TEMPO 4000
-----------------------------------------------------------------------------------------------------------------------------------------------------------------------------
'datetime':2017-09-20 03:20:00
'ICAO':EDDF
'reading':
'temperature':7
'pressure':1021
'direction':210
'direction_varmin':
'direction_varmax':
'windspeed':3
'windspeed_gusts':
'created':2017-09-20 03:38:33